Nearby METAR Reports

 

KTAN - Taunton, Massachusetts, USA
Distance from station: W 5mi, 8km
Updated: 06/01/2020 2:52am
Clear
Clear
 Wind from calm
Wind: Calm
Temperature: 39°F , 4°C
Dew Point: 34°F , 1°C
Humidity: 81%
Barometer: 30.15 inHg , 1021 hPa
Clouds: Clear
Visibility: 10 miles , 16 km
2020/06/01 06:52 KTAN 010652Z AUTO 00000KT 10SM CLR 04/01 A3015 RMK AO2 SLP208 T00440011 $
KPYM - Plymouth, Massachusetts, USA
Distance from station: ENE 10mi, 16km
Updated: 06/01/2020 2:52am
Clear
Clear
 Wind from WNW
Wind: WNW 5 mph , 7 km/h
Temperature: 45°F , 7°C
Wind Chill: 42°F , 6°C
Dew Point: 32°F , 0°C
Humidity: 61%
Barometer: 30.14 inHg , 1020.7 hPa
Clouds: Clear
Visibility: 10 miles , 16 km
2020/06/01 06:52 KPYM 010652Z AUTO 30004KT 10SM CLR 07/00 A3014 RMK AO2 SLP206 T00720000
 
KEWB - New Bedford, Massachusetts, USA
Distance from station: S 14mi, 23km
Updated: 06/01/2020 2:53am
Clear
Clear
 Wind from calm
Wind: Calm
Temperature: 46°F , 8°C
Dew Point: 32°F , 0°C
Humidity: 57%
Barometer: 30.14 inHg , 1020.7 hPa
Clouds: Clear
Visibility: 10 miles , 16 km
2020/06/01 06:53 KEWB 010653Z AUTO 00000KT 10SM CLR 08/00 A3014 RMK AO2 SLP206 T00780000
KGHG - Marshfield, Massachusetts, USA
Distance from station: NE 20mi, 31km
Updated: 06/01/2020 2:55am
Clear
Clear
 Wind from varies
Wind: varies 5 mph , 7 km/h
Temperature: 46°F , 8°C
Wind Chill: 44°F , 7°C
Dew Point: 34°F , 1°C
Humidity: 62%
Barometer: 30.14 inHg , 1020.7 hPa
Clouds: Clear
Visibility: 10 miles , 16 km
2020/06/01 06:55 KGHG 010655Z AUTO VRB04KT 10SM CLR 08/01 A3014 RMK AO2
 
KOWD - Norwood, Massachusetts, USA
Distance from station: NNW 24mi, 39km
Updated: 06/01/2020 2:53am
Mostly cloudy
Mostly cloudy
 Wind from calm
Wind: Calm
Temperature: 39°F , 4°C
Dew Point: 36°F , 2°C
Humidity: 87%
Barometer: 30.15 inHg , 1021 hPa
Clouds: Mostly cloudy
Visibility: 10 miles , 16 km
Cloud details: Mostly cloudy 9000 ft
2020/06/01 06:53 KOWD 010653Z AUTO 00000KT 10SM BKN090 04/02 A3015 RMK AO2 SLP209 T00440017 $
KMQE - East Milton, Massachusetts, USA
Distance from station: NNW 25mi, 40km
Updated: 06/01/2020 2:51am

 Wind from NNW
Wind: NNW 7 mph , 11 km/h
Temperature: 45°F , 7°C
Wind Chill: 41°F , 5°C
Dew Point: 30°F , -1°C
Humidity: 57%
Barometer: 30.12 inHg , 1020 hPa
2020/06/01 06:51 KMQE 010651Z AUTO 34006KT 07/M01 A3012 RMK AO1 SLP212 T00671006
 
KFMH - Falmouth/Otis Ab, Massachusetts, USA
Distance from station: SE 27mi, 44km
Updated: 06/01/2020 2:55am
Clear
Clear
 Wind from N
Wind: N 6 mph , 9 km/h
Temperature: 46°F , 8°C
Wind Chill: 43°F , 6°C
Dew Point: 28°F , -2°C
Humidity: 50%
Barometer: 30.14 inHg , 1020.7 hPa
Clouds: Clear
Visibility: 10 miles , 16 km
2020/06/01 06:55 KFMH 010655Z 36005KT 10SM CLR 08/M02 A3014
KPVD - Providence/Green, Rhode Island, USA
Distance from station: WSW 29mi, 47km
Updated: 06/01/2020 2:51am
Clear
Clear
 Wind from calm
Wind: Calm
Temperature: 46°F , 8°C
Dew Point: 34°F , 1°C
Humidity: 62%
Barometer: 30.16 inHg , 1021.3 hPa
Clouds: Clear
Visibility: 10 miles , 16 km
2020/06/01 06:51 KPVD 010651Z AUTO 00000KT 10SM CLR 08/01 A3016 RMK AO2 SLP213 T00830006
 
KSFZ - Pawtucket, Rhode Island, USA
Distance from station: W 30mi, 48km
Updated: 06/01/2020 2:56am
Clear
Clear
 Wind from calm
Wind: Calm
Temperature: 37°F , 3°C
Dew Point: 36°F , 2°C
Humidity: 93%
Barometer: 30.16 inHg , 1021.3 hPa
Clouds: Clear
Visibility: 10 miles , 16 km
2020/06/01 06:56 KSFZ 010656Z AUTO 00000KT 10SM CLR 03/02 A3016 RMK AO2 SLP159 T00330017
KUUU - Newport, Rhode Island, USA
Distance from station: SW 31mi, 50km
Updated: 06/01/2020 2:53am
Clear
Clear
 Wind from N
Wind: N 6 mph , 9 km/h
Temperature: 48°F , 9°C
Wind Chill: 45°F , 7°C
Dew Point: 32°F , 0°C
Humidity: 54%
Barometer: 30.15 inHg , 1021 hPa
Clouds: Clear
Visibility: 10 miles , 16 km
2020/06/01 06:53 KUUU 010653Z AUTO 35005KT 10SM CLR 09/00 A3015 RMK AO2 SLP209 T00890000
 
KOQU - N. Kingston/Quon, Rhode Island, USA
Distance from station: SW 32mi, 52km
Updated: 05/31/2020 5:50pm
NOT Current
Partly cloudy
Partly cloudy
 Wind from NW
Wind: NW 21 mph , 33 km/h
Temperature: 66°F , 19°C
Dew Point: 34°F , 1°C
Humidity: 30%
Barometer: 30.00 inHg , 1015.9 hPa
Clouds: Partly cloudy
Visibility: 10 miles , 16 km
Cloud details: Partly cloudy 7500 ft
2020/05/31 21:50 KOQU 312150Z 32018KT 10SM SCT075 19/01 A3000 RMK LAST
KBOS - Boston, Massachusetts, USA
Distance from station: N 33mi, 54km
Updated: 06/01/2020 2:54am
Overcast
Overcast
 Wind from NW
Wind: NW 7 mph , 11 km/h
Temperature: 48°F , 9°C
Wind Chill: 45°F , 7°C
Dew Point: 28°F , -2°C
Humidity: 46%
Barometer: 30.15 inHg , 1021 hPa
Clouds: Overcast
Visibility: 10 miles , 16 km
Cloud details: Mostly cloudy 9000 ft
Overcast 15000 ft
2020/06/01 06:54 KBOS 010654Z 31006KT 10SM BKN090 OVC150 09/M02 A3015 RMK AO2 SLP210 T00941017
 
KHYA - Hyannis, Massachusetts, USA
Distance from station: ESE 37mi, 59km
Updated: 06/01/2020 2:56am
Clear
Clear
 Wind from NNW
Wind: NNW 10 mph , 17 km/h, Gust: 18 mph , 30 km/h
Temperature: 52°F , 11°C
Dew Point: 34°F , 1°C
Humidity: 50%
Barometer: 30.11 inHg , 1019.6 hPa
Clouds: Clear
Visibility: 10 miles , 16 km
2020/06/01 06:56 KHYA 010656Z AUTO 34009G16KT 10SM CLR 11/01 A3011 RMK AO2 SLP198 T01110006
KMVY - Marthas Vineyard, Massachusetts, USA
Distance from station: SSE 37mi, 60km
Updated: 06/01/2020 2:53am
Few Clouds
Few Clouds
 Wind from N
Wind: N 6 mph , 9 km/h
Temperature: 48°F , 9°C
Wind Chill: 45°F , 7°C
Dew Point: 28°F , -2°C
Humidity: 46%
Barometer: 30.13 inHg , 1020.3 hPa
Clouds: Few Clouds
Visibility: 10 miles , 16 km
Cloud details: Few Clouds 8500 ft
2020/06/01 06:53 KMVY 010653Z AUTO 36005KT 10SM FEW085 09/M02 A3013 RMK AO2 SLP204 T00941017
 
KPVC - Provincetown, Massachusetts, USA
Distance from station: ENE 38mi, 61km
Updated: 06/01/2020 2:56am
Clear
Clear
 Wind from NNW
Wind: NNW 14 mph , 22 km/h
Temperature: 50°F , 10°C
Wind Chill: 45°F , 7°C
Dew Point: 37°F , 3°C
Humidity: 62%
Barometer: 30.14 inHg , 1020.7 hPa
Clouds: Clear
Visibility: 10 miles , 16 km
2020/06/01 06:56 KPVC 010656Z AUTO 33012KT 10SM CLR 10/03 A3014 RMK AO2 SLP206 T01000028
KBED - Bedford, Massachusetts, USA
Distance from station: NNW 44mi, 72km
Updated: 06/01/2020 2:51am
Mostly cloudy
Mostly cloudy
 Wind from calm
Wind: Calm
Temperature: 39°F , 4°C
Dew Point: 36°F , 2°C
Humidity: 87%
Barometer: 30.14 inHg , 1020.7 hPa
Clouds: Mostly cloudy
Visibility: 10 miles , 16 km
Cloud details: Few Clouds 7000 ft
Mostly cloudy 9000 ft
2020/06/01 06:51 KBED 010651Z AUTO 00000KT 10SM FEW070 BKN090 04/02 A3014 RMK AO2 SLP221 T00440017
 
KBVY - Beverly, Massachusetts, USA
Distance from station: 0 48mi, 77km
Updated: 06/01/2020 2:53am
Mostly cloudy
Mostly cloudy
 Wind from WNW
Wind: WNW 3 mph , 6 km/h
Temperature: 39°F , 4°C
Dew Point: 36°F , 2°C
Humidity: 87%
Barometer: 30.14 inHg , 1020.7 hPa
Clouds: Mostly cloudy
Visibility: 10 miles , 16 km
Cloud details: Mostly cloudy 9500 ft
2020/06/01 06:53 KBVY 010653Z AUTO 30003KT 10SM BKN095 04/02 A3014 RMK AO2 SLP201 T00440017
KCQX - Chatham, Massachusetts, USA
Distance from station: ESE 49mi, 80km
Updated: 06/01/2020 2:52am
Clear
Clear
 Wind from varies
Wind: varies 5 mph , 7 km/h
Temperature: 50°F , 10°C
Wind Chill: 48°F , 9°C
Dew Point: 34°F , 1°C
Humidity: 54%
Barometer: 30.13 inHg , 1020.3 hPa
Clouds: Clear
Visibility: 10 miles , 16 km
2020/06/01 06:52 KCQX 010652Z AUTO VRB04KT 10SM CLR 10/01 A3013 RMK AO2 SLP205 T01000006